TED STEVENS ANCHORAGE INTL

PANC (ANC)
Anchorage, Alaska
Towered

Vatsim Metar:
PANC 181853Z 18005KT 10SM SCT080 11/03 A2995 RMK AO2 SLP144 T01110028

TED STEVENS ANCHORAGE INTL ATC

ANC_03_CTR - 133.300 - Adam Veall
Fiume Ground Charts at vats.im/it/charts IMPORTANT BRIEF https //vats.im/it/LIRFbrief Feedback helps us get better! Submit yours at vats.im/it/feedback

Traffic

Inbound:
Ident
Type
Name
ETA
Phase
ASA2922
A320
Delroy White MKJP
Boarding
UAL23
B737
Aaron N KHEF
20:08 Z
Cruse
ASA9662
B737
Steve Kashevarof C05
20:11 Z
Cruse
NWA902
B744
Cody Gustafson KATW
20:10 Z
Cruse
UPS4785
A339
Jacob KFTW
22:25 Z
Cruse
VTS41
DC6
Adrien Jennings KLAX
Unknown
AAL269
CONC
Mike Martin KCLE
21:09 Z
Cruse

Outbound:
Ident
Type
Name
Destination
Phase